KMJX/MJX METAR and TAF weather

Enter ICAO airport designator
Station Type Date Time Source
KMJX METAR 2019/08/23 15:56 UTC NOAA

KMJX 231556Z AUTO 32007KT 10SM OVC042 21/19 A3002 RMK AO2 SLP170 T02110194


Station Type Date Time Source
KMJX Decoded METAR 2019/08/23 15:56 UTC NOAA

Station name not available
Aug 23, 2019 - 11:56 AM EDT / 2019.08.23 1556 UTC
Wind: from the NW (320 degrees) at 8 MPH (7 KT):0
Visibility: 10 mile(s):0
Sky conditions: overcast
Temperature: 70.0 F (21.1 C)
Dew Point: 66.9 F (19.4 C)
Relative Humidity: 90%
Pressure (altimeter): 30.02 in. Hg (1016 hPa)
ob: KMJX 231556Z AUTO 32007KT 10SM OVC042 21/19 A3002 RMK AO2 SLP170 T02110194
cycle: 16

Station Type Date Time Source
KMJX TAF UTC NOAA

Error!

Example: see airport list